createdAt,value
2019-06-10T00:02:15.541Z,13.90
2019-06-10T00:04:45.048Z,10.85
2019-06-10T00:07:14.703Z,11.55
2019-06-10T00:09:44.152Z,14.10
2019-06-10T00:12:15.019Z,15.80
2019-06-10T00:14:44.526Z,11.08
2019-06-10T00:17:13.985Z,14.90
2019-06-10T00:19:43.508Z,12.43
2019-06-10T00:22:13.107Z,9.93
2019-06-10T00:24:42.596Z,17.42
2019-06-10T00:27:12.134Z,12.75
2019-06-10T00:29:41.675Z,14.98
2019-06-10T00:34:43.079Z,16.47
2019-06-10T00:37:15.097Z,18.57
2019-06-10T00:39:44.595Z,13.25
2019-06-10T00:42:15.162Z,12.68
2019-06-10T00:44:44.999Z,12.82
2019-06-10T00:47:15.212Z,12.80
2019-06-10T00:49:45.033Z,14.37
2019-06-10T00:52:15.683Z,14.97
2019-06-10T00:54:45.207Z,12.58
2019-06-10T00:57:15.983Z,15.10
2019-06-10T00:59:45.439Z,13.97
2019-06-10T01:02:14.818Z,14.05
2019-06-10T01:04:45.357Z,18.62
2019-06-10T01:07:15.085Z,11.75
2019-06-10T01:09:44.584Z,11.53
2019-06-10T01:12:15.239Z,12.07
2019-06-10T01:14:44.692Z,15.63
2019-06-10T01:17:15.472Z,15.35
2019-06-10T01:19:45.251Z,15.75
2019-06-10T01:22:17.196Z,14.87
2019-06-10T01:24:46.764Z,9.68
2019-06-10T01:27:18.086Z,14.57
2019-06-10T01:29:47.563Z,15.63
2019-06-10T01:32:18.173Z,18.35
2019-06-10T01:34:47.571Z,15.83
2019-06-10T01:37:17.665Z,13.58
2019-06-10T01:39:47.261Z,18.15
2019-06-10T01:42:17.194Z,11.25
2019-06-10T01:44:47.723Z,12.85
2019-06-10T01:47:18.248Z,13.85
2019-06-10T01:52:16.990Z,17.02
2019-06-10T01:54:47.647Z,12.30
2019-06-10T01:59:46.621Z,15.95
2019-06-10T02:04:48.044Z,12.07
2019-06-10T02:07:18.786Z,15.00
2019-06-10T02:09:48.659Z,18.52
2019-06-10T02:14:50.802Z,13.30
2019-06-10T02:17:23.552Z,12.50
2019-06-10T02:19:50.975Z,11.22
2019-06-10T02:22:24.073Z,13.73
2019-06-10T02:24:51.583Z,12.45
2019-06-10T02:29:51.594Z,12.43
2019-06-10T02:32:31.014Z,13.30
2019-06-10T02:35:06.957Z,14.95
2019-06-10T02:37:31.773Z,12.70
2019-06-10T02:39:54.916Z,16.75
2019-06-10T02:42:30.497Z,13.30
2019-06-10T02:44:57.185Z,10.50
2019-06-10T02:47:36.195Z,12.13
2019-06-10T02:50:15.017Z,16.30
2019-06-10T02:52:44.638Z,16.52
2019-06-10T02:55:16.266Z,9.85
2019-06-10T02:57:45.456Z,14.28
2019-06-10T03:00:24.788Z,12.88
2019-06-10T03:02:47.205Z,12.82
2019-06-10T03:05:19.113Z,12.03
2019-06-10T03:07:47.886Z,14.00
2019-06-10T03:10:20.693Z,11.45
2019-06-10T03:12:48.577Z,14.70
2019-06-10T03:18:02.405Z,10.83
2019-06-10T03:20:32.830Z,12.85
2019-06-10T03:23:02.991Z,17.12
2019-06-10T03:25:32.833Z,9.93
2019-06-10T03:28:03.056Z,10.72
2019-06-10T03:30:47.132Z,13.93
2019-06-10T03:33:04.919Z,12.63
2019-06-10T03:35:35.178Z,17.92
2019-06-10T03:38:04.646Z,14.53
2019-06-10T03:40:35.090Z,17.75
2019-06-10T03:43:04.653Z,14.30
2019-06-10T03:45:34.156Z,12.90
2019-06-10T03:48:04.598Z,11.03
2019-06-10T03:50:34.066Z,13.48
2019-06-10T03:53:04.347Z,13.08
2019-06-10T03:55:35.096Z,13.72
2019-06-10T03:58:04.704Z,12.93
2019-06-10T04:03:04.582Z,16.35
2019-06-10T04:05:34.128Z,13.13
2019-06-10T04:08:04.700Z,12.00
2019-06-10T04:10:34.160Z,14.65
2019-06-10T04:13:03.727Z,18.12
2019-06-10T04:15:33.454Z,14.43
2019-06-10T04:18:03.873Z,16.25
2019-06-10T04:20:33.782Z,10.15
2019-06-10T04:25:32.484Z,17.23
2019-06-10T04:28:03.217Z,11.55
2019-06-10T04:30:32.831Z,10.30
2019-06-10T04:33:02.434Z,13.75
2019-06-10T04:35:33.675Z,12.18
2019-06-10T04:38:23.372Z,12.65
2019-06-10T04:40:54.254Z,16.95
2019-06-10T04:43:26.007Z,10.80
2019-06-10T04:45:54.828Z,10.20
2019-06-10T04:48:26.157Z,12.53
2019-06-10T04:50:55.499Z,11.10
2019-06-10T04:53:26.462Z,13.00
2019-06-10T04:55:56.014Z,11.25
2019-06-10T04:58:27.584Z,9.67
2019-06-10T05:00:56.538Z,15.28
2019-06-10T05:03:26.807Z,16.95
2019-06-10T05:05:56.990Z,11.57
2019-06-10T05:08:26.903Z,13.95
2019-06-10T05:10:57.728Z,10.65
2019-06-10T05:15:56.494Z,10.82
2019-06-10T05:20:58.545Z,10.20
2019-06-10T05:23:27.893Z,15.33
2019-06-10T05:25:57.374Z,15.30
2019-06-10T05:30:56.918Z,11.80
2019-06-10T05:33:27.156Z,13.13
2019-06-10T05:35:56.824Z,13.25
2019-06-10T05:38:27.539Z,17.65
2019-06-10T05:40:57.562Z,14.15
2019-06-10T05:43:27.872Z,15.00
2019-06-10T05:45:57.373Z,12.28
2019-06-10T05:48:26.815Z,15.45
2019-06-10T05:51:02.183Z,15.95
2019-06-10T05:53:28.030Z,10.63
2019-06-10T05:55:58.736Z,12.28
2019-06-10T06:00:57.184Z,14.10
2019-06-10T06:03:27.766Z,13.40
2019-06-10T06:05:57.390Z,10.43
2019-06-10T06:08:27.093Z,18.45
2019-06-10T06:10:56.613Z,13.60
2019-06-10T06:13:27.362Z,14.83
2019-06-10T06:16:15.184Z,12.80
2019-06-10T06:18:44.670Z,16.05
2019-06-10T06:21:25.377Z,12.95
2019-06-10T06:23:46.302Z,12.82
2019-06-10T06:26:16.685Z,12.67
2019-06-10T06:28:46.306Z,10.00
2019-06-10T06:31:15.761Z,14.05
2019-06-10T06:36:13.906Z,16.32
2019-06-10T06:41:14.451Z,17.75
2019-06-10T06:43:45.413Z,15.08
2019-06-10T06:46:15.136Z,10.50
2019-06-10T06:48:44.584Z,11.48
2019-06-10T06:53:51.412Z,10.32
2019-06-10T06:56:15.089Z,11.20
2019-06-10T06:58:44.612Z,13.70
2019-06-10T07:03:45.057Z,10.27
2019-06-10T07:06:15.391Z,11.27
2019-06-10T07:09:00.542Z,9.70
2019-06-10T07:11:18.091Z,8.33
2019-06-10T07:13:47.593Z,10.27
2019-06-10T07:16:17.160Z,11.80
2019-06-10T07:18:50.339Z,11.25
2019-06-10T07:21:17.863Z,17.40
2019-06-10T07:26:16.588Z,9.83
2019-06-10T07:28:47.527Z,8.33
2019-06-10T07:31:23.762Z,9.38
2019-06-10T07:33:48.258Z,11.48
2019-06-10T07:36:17.829Z,11.17
2019-06-10T07:41:17.786Z,8.95
2019-06-10T07:43:49.918Z,10.32
2019-06-10T07:46:22.775Z,7.63
2019-06-10T07:48:55.729Z,12.25
2019-06-10T07:51:23.828Z,7.08
2019-06-10T07:53:53.327Z,8.58
2019-06-10T07:56:23.385Z,7.70
2019-06-10T07:58:53.147Z,10.82
2019-06-10T08:01:23.218Z,11.50
2019-06-10T08:03:52.977Z,14.70
2019-06-10T08:08:53.231Z,10.03
2019-06-10T08:11:23.146Z,8.80
2019-06-10T08:13:53.790Z,9.20
2019-06-10T08:16:23.880Z,9.40
2019-06-10T08:21:25.196Z,9.80
2019-06-10T08:23:55.116Z,11.33
2019-06-10T08:26:26.095Z,12.13
2019-06-10T08:28:56.647Z,9.13
2019-06-10T08:33:54.730Z,9.83
2019-06-10T08:38:53.075Z,7.85
2019-06-10T08:41:23.602Z,10.48
2019-06-10T08:43:53.314Z,9.33
2019-06-10T08:46:22.870Z,10.63
2019-06-10T08:51:23.735Z,10.80
2019-06-10T08:53:53.402Z,6.53
2019-06-10T08:56:22.948Z,9.47
2019-06-10T08:58:54.061Z,12.95
2019-06-10T09:01:23.732Z,11.10
2019-06-10T09:06:23.313Z,8.17
2019-06-10T09:08:56.135Z,10.72
2019-06-10T09:11:27.614Z,10.85
2019-06-10T09:13:56.882Z,10.78
2019-06-10T09:16:26.381Z,10.50
2019-06-10T09:18:55.897Z,15.43
2019-06-10T09:21:26.846Z,9.75
2019-06-10T09:23:59.944Z,11.17
2019-06-10T09:26:27.451Z,14.38
2019-06-10T09:28:56.890Z,11.45
2019-06-10T09:31:28.595Z,12.75
2019-06-10T09:33:58.119Z,12.80
2019-06-10T09:36:27.646Z,11.25
2019-06-10T09:38:57.182Z,9.98
2019-06-10T09:41:37.440Z,13.28
2019-06-10T09:43:58.965Z,9.33
2019-06-10T09:46:33.088Z,10.82
2019-06-10T09:49:03.280Z,11.00
2019-06-10T09:51:33.010Z,12.95
2019-06-10T09:54:06.420Z,11.33
2019-06-10T09:56:34.830Z,9.30
2019-06-10T09:59:05.041Z,10.30
2019-06-10T10:01:34.624Z,10.00
2019-06-10T10:04:05.657Z,9.33
2019-06-10T10:06:35.264Z,11.55
2019-06-10T10:09:06.621Z,13.70
2019-06-10T10:11:36.198Z,11.85
2019-06-10T10:14:10.359Z,10.00
2019-06-10T10:16:37.736Z,12.95
2019-06-10T10:19:07.172Z,13.18
2019-06-10T10:21:36.943Z,10.30
2019-06-10T10:24:10.777Z,12.63
2019-06-10T10:26:42.664Z,15.08
2019-06-10T10:29:13.076Z,13.35
2019-06-10T10:31:46.604Z,13.32
2019-06-10T10:34:13.865Z,14.67
2019-06-10T10:36:45.393Z,13.85
2019-06-10T10:39:14.632Z,13.58
2019-06-10T10:41:45.168Z,11.53
2019-06-10T10:44:15.187Z,12.73
2019-06-10T10:46:45.593Z,12.45
2019-06-10T10:49:15.827Z,11.20
2019-06-10T10:51:45.507Z,11.53
2019-06-10T10:56:47.158Z,11.22
2019-06-10T10:59:16.291Z,13.95
2019-06-10T11:01:45.871Z,12.20
2019-06-10T11:04:35.493Z,14.13
2019-06-10T11:07:06.067Z,14.45
2019-06-10T11:12:04.799Z,9.93
2019-06-10T11:14:34.529Z,12.03
2019-06-10T11:17:04.224Z,9.28
2019-06-10T11:19:33.854Z,12.75
2019-06-10T11:22:04.994Z,9.45
2019-06-10T11:24:41.039Z,10.40
2019-06-10T11:27:07.294Z,12.05
2019-06-10T11:29:36.748Z,9.60
2019-06-10T11:32:07.485Z,7.40
2019-06-10T11:34:37.004Z,11.00
2019-06-10T11:39:38.577Z,12.07
2019-06-10T11:42:06.498Z,9.93
2019-06-10T11:47:04.738Z,11.03
2019-06-10T11:52:03.353Z,13.80
2019-06-10T11:54:47.854Z,12.63
2019-06-10T11:57:04.185Z,9.50
2019-06-10T11:59:33.723Z,12.65
2019-06-10T12:02:06.029Z,11.67
2019-06-10T12:04:34.361Z,9.95
2019-06-10T12:07:03.923Z,10.55
2019-06-10T12:12:03.031Z,12.28
2019-06-10T12:14:33.643Z,10.50
2019-06-10T12:17:22.169Z,12.95
2019-06-10T12:19:34.439Z,15.83
2019-06-10T12:22:09.084Z,11.80
2019-06-10T12:24:38.563Z,13.93
2019-06-10T12:27:08.129Z,18.20
2019-06-10T12:29:37.608Z,11.40
2019-06-10T12:32:07.829Z,11.93
2019-06-10T12:34:38.501Z,10.43
2019-06-10T12:39:59.383Z,11.97
2019-06-10T12:42:27.889Z,10.48
2019-06-10T12:44:58.922Z,13.63
2019-06-10T12:47:28.567Z,12.10
2019-06-10T12:49:59.087Z,13.40
2019-06-10T12:52:32.460Z,12.18
2019-06-10T12:55:02.389Z,12.87
2019-06-10T12:57:33.328Z,12.37
2019-06-10T13:00:17.701Z,9.30
2019-06-10T13:02:35.726Z,11.83
2019-06-10T13:05:08.404Z,11.83
2019-06-10T13:07:39.173Z,11.57
2019-06-10T13:10:12.009Z,9.00
2019-06-10T13:12:48.762Z,11.60
2019-06-10T13:15:18.646Z,9.45
2019-06-10T13:17:53.763Z,10.45
2019-06-10T13:20:22.906Z,12.00
2019-06-10T13:22:53.500Z,11.93
2019-06-10T13:25:22.975Z,11.70
2019-06-10T13:27:52.549Z,12.97
2019-06-10T13:30:22.686Z,13.00
2019-06-10T13:32:52.775Z,9.28
2019-06-10T13:35:23.586Z,13.30
2019-06-10T13:37:54.204Z,8.03
2019-06-10T13:40:25.672Z,7.50
2019-06-10T13:42:57.672Z,12.43
2019-06-10T13:45:26.385Z,10.85
2019-06-10T13:47:55.829Z,9.55
2019-06-10T13:50:25.850Z,10.80
2019-06-10T13:52:55.389Z,12.65
2019-06-10T13:55:24.897Z,11.50
2019-06-10T13:57:54.409Z,9.75
2019-06-10T14:00:40.623Z,13.05
2019-06-10T14:02:55.258Z,9.17
2019-06-10T14:05:24.817Z,8.38
2019-06-10T14:07:55.088Z,9.05
2019-06-10T14:10:24.740Z,11.48
2019-06-10T14:12:54.191Z,7.67
2019-06-10T14:15:23.703Z,9.55
2019-06-10T14:17:54.254Z,9.13
2019-06-10T14:20:24.326Z,10.77
2019-06-10T14:22:53.796Z,8.08
2019-06-10T14:27:53.360Z,10.30
2019-06-10T14:30:25.909Z,5.90
2019-06-10T14:32:55.463Z,10.28
2019-06-10T14:35:26.833Z,9.50
2019-06-10T14:37:55.940Z,9.77
2019-06-10T14:40:25.511Z,11.48
2019-06-10T14:45:23.883Z,11.57
2019-06-10T14:47:54.387Z,10.68
2019-06-10T14:50:24.893Z,11.78
2019-06-10T14:52:54.316Z,10.53
2019-06-10T14:57:53.285Z,11.37
2019-06-10T15:00:23.580Z,12.07
2019-06-10T15:02:54.044Z,12.70
2019-06-10T15:05:23.772Z,10.40
2019-06-10T15:07:54.367Z,11.33
2019-06-10T15:10:23.952Z,10.53
2019-06-10T15:15:23.613Z,9.60
2019-06-10T15:17:53.288Z,13.07
2019-06-10T15:20:22.929Z,11.12
2019-06-10T15:25:27.476Z,14.93
2019-06-10T15:27:53.479Z,10.05
2019-06-10T15:30:27.204Z,14.17
2019-06-10T15:32:54.132Z,14.87
2019-06-10T15:35:24.542Z,15.07
2019-06-10T15:37:54.116Z,12.25
2019-06-10T15:40:23.579Z,11.00
2019-06-10T15:42:53.435Z,15.05
2019-06-10T15:45:23.203Z,12.78
2019-06-10T15:47:53.213Z,15.15
2019-06-10T15:50:23.484Z,14.67
2019-06-10T15:52:54.932Z,15.13
2019-06-10T15:55:49.186Z,18.07
2019-06-10T15:57:56.616Z,14.07
2019-06-10T16:00:29.245Z,12.53
2019-06-10T16:02:57.424Z,16.13
2019-06-10T16:05:26.987Z,14.73
2019-06-10T16:07:56.462Z,13.90
2019-06-10T16:10:27.767Z,13.78
2019-06-10T16:12:57.128Z,14.53
2019-06-10T16:15:26.793Z,16.02
2019-06-10T16:17:56.333Z,15.25
2019-06-10T16:20:25.888Z,19.65
2019-06-10T16:22:55.356Z,18.98
2019-06-10T16:25:26.499Z,14.20
2019-06-10T16:27:56.274Z,19.23
2019-06-10T16:30:26.122Z,24.05
2019-06-10T16:32:55.798Z,21.60
2019-06-10T16:35:26.933Z,23.50
2019-06-10T16:37:56.993Z,26.10
2019-06-10T16:40:27.189Z,19.65
2019-06-10T16:42:56.856Z,21.07
2019-06-10T16:45:30.838Z,21.50
2019-06-10T16:48:02.252Z,21.42
2019-06-10T16:50:33.998Z,18.05
2019-06-10T16:53:03.429Z,19.02
2019-06-10T16:55:33.362Z,18.43
2019-06-10T16:58:03.177Z,15.23
2019-06-10T17:00:34.793Z,21.75
2019-06-10T17:03:05.878Z,19.07
2019-06-10T17:05:35.447Z,13.78
2019-06-10T17:08:05.660Z,15.23
2019-06-10T17:10:35.277Z,13.20
2019-06-10T17:13:06.686Z,12.18
2019-06-10T17:15:36.175Z,14.25
2019-06-10T17:20:34.462Z,12.53
2019-06-10T17:23:25.991Z,11.90
2019-06-10T17:28:28.318Z,15.13
2019-06-10T17:30:56.166Z,11.88
2019-06-10T17:33:27.655Z,14.63
2019-06-10T17:35:56.915Z,15.60
2019-06-10T17:38:26.922Z,14.00
2019-06-10T17:40:56.474Z,11.85
2019-06-10T17:43:27.231Z,14.13
2019-06-10T17:45:56.899Z,15.83
2019-06-10T17:48:27.970Z,15.95
2019-06-10T17:50:57.598Z,16.48
2019-06-10T17:53:28.151Z,14.40
2019-06-10T17:55:57.827Z,15.88
2019-06-10T18:00:57.492Z,23.22
2019-06-10T18:03:27.914Z,19.23
2019-06-10T18:05:58.050Z,18.47
2019-06-10T18:08:27.670Z,21.70
2019-06-10T18:10:57.098Z,17.27
2019-06-10T18:13:26.554Z,17.75
2019-06-10T18:15:56.037Z,19.35
2019-06-10T18:18:26.325Z,15.87
2019-06-10T18:20:55.939Z,27.45
2019-06-10T18:23:26.453Z,16.12
2019-06-10T18:25:56.068Z,23.57
2019-06-10T18:28:26.881Z,23.60
2019-06-10T18:30:56.684Z,19.33
2019-06-10T18:33:27.600Z,22.22
2019-06-10T18:35:58.271Z,25.55
2019-06-10T18:38:27.845Z,23.98
2019-06-10T18:43:27.602Z,25.80
2019-06-10T18:45:57.200Z,29.67
2019-06-10T18:48:26.915Z,24.60
2019-06-10T18:53:25.012Z,29.47
2019-06-10T18:55:54.970Z,25.80
2019-06-10T18:58:24.574Z,30.20
2019-06-10T19:01:03.662Z,31.27
2019-06-10T19:03:25.227Z,31.50
2019-06-10T19:05:56.367Z,34.92
2019-06-10T19:08:25.738Z,31.48
2019-06-10T19:10:55.273Z,19.48
2019-06-10T19:15:53.510Z,18.67
2019-06-10T19:18:23.554Z,18.27
2019-06-10T19:20:53.687Z,13.78
2019-06-10T19:23:23.239Z,14.68
2019-06-10T19:25:52.851Z,14.87
2019-06-10T19:28:23.496Z,12.80
2019-06-10T19:30:53.733Z,18.98
2019-06-10T19:33:24.478Z,15.13
2019-06-10T19:35:53.898Z,20.57
2019-06-10T19:38:23.388Z,18.57
2019-06-10T19:40:52.832Z,19.27
2019-06-10T19:43:22.267Z,16.82
2019-06-10T19:45:52.990Z,15.88
2019-06-10T19:48:22.691Z,16.27
2019-06-10T19:53:22.671Z,13.20
2019-06-10T19:55:53.512Z,14.18
2019-06-10T19:58:23.298Z,13.47
2019-06-10T20:00:54.515Z,11.10
2019-06-10T20:03:24.237Z,13.60
2019-06-10T20:05:53.839Z,12.65
2019-06-10T20:08:23.251Z,9.45
2019-06-10T20:10:53.367Z,9.68
2019-06-10T20:13:23.246Z,8.53
2019-06-10T20:15:52.734Z,8.23
2019-06-10T20:18:22.673Z,8.15
2019-06-10T20:20:54.093Z,8.95
2019-06-10T20:23:23.721Z,7.58
2019-06-10T20:25:53.252Z,7.35
2019-06-10T20:28:22.639Z,8.00
2019-06-10T20:33:33.719Z,8.43
2019-06-10T20:36:06.306Z,14.10
2019-06-10T20:38:34.059Z,7.97
2019-06-10T20:41:03.496Z,7.75
2019-06-10T20:43:33.013Z,8.33
2019-06-10T20:46:05.630Z,8.25
2019-06-10T20:48:33.600Z,8.50
2019-06-10T20:51:03.443Z,7.90
2019-06-10T20:53:34.016Z,8.45
2019-06-10T20:56:04.880Z,7.60
2019-06-10T20:58:34.320Z,6.72
2019-06-10T21:01:04.808Z,7.90
2019-06-10T21:03:34.460Z,8.73
2019-06-10T21:06:05.310Z,6.28
2019-06-10T21:08:35.127Z,6.95
2019-06-10T21:11:04.653Z,6.22
2019-06-10T21:13:34.322Z,8.98
2019-06-10T21:18:33.554Z,6.22
2019-06-10T21:23:31.962Z,8.83
2019-06-10T21:26:02.972Z,7.90
2019-06-10T21:28:33.740Z,6.85
2019-06-10T21:33:34.286Z,6.63
2019-06-10T21:36:04.718Z,7.57
2019-06-10T21:38:34.213Z,7.00
2019-06-10T21:41:03.680Z,8.90
2019-06-10T21:46:04.006Z,8.10
2019-06-10T21:48:34.549Z,7.47
2019-06-10T21:51:05.993Z,7.03
2019-06-10T21:53:35.455Z,8.25
2019-06-10T21:56:06.519Z,6.97
2019-06-10T21:58:35.902Z,9.40
2019-06-10T22:01:12.029Z,8.50
2019-06-10T22:03:39.478Z,8.93
2019-06-10T22:06:07.871Z,7.90
2019-06-10T22:08:42.344Z,9.15
2019-06-10T22:11:13.451Z,9.48
2019-06-10T22:13:42.461Z,8.20
2019-06-10T22:16:11.897Z,8.70
2019-06-10T22:18:42.457Z,8.18
2019-06-10T22:21:14.626Z,8.40
2019-06-10T22:23:43.005Z,10.10
2019-06-10T22:26:13.086Z,9.30
2019-06-10T22:28:43.320Z,9.63
2019-06-10T22:31:22.312Z,9.60
2019-06-10T22:33:45.235Z,11.55
2019-06-10T22:36:14.773Z,9.67
2019-06-10T22:38:45.875Z,9.55
2019-06-10T22:41:15.360Z,9.73
2019-06-10T22:43:44.832Z,10.32
2019-06-10T22:46:14.341Z,10.15
2019-06-10T22:48:43.818Z,10.27
2019-06-10T22:51:13.253Z,11.75
2019-06-10T22:53:43.905Z,10.25
2019-06-10T22:56:15.094Z,11.30
2019-06-10T22:58:44.560Z,11.00
2019-06-10T23:03:42.749Z,12.10
2019-06-10T23:08:43.776Z,12.33
2019-06-10T23:11:13.279Z,12.13
2019-06-10T23:13:42.747Z,11.80
2019-06-10T23:16:13.046Z,12.98
2019-06-10T23:18:44.227Z,12.73
2019-06-10T23:21:14.785Z,13.38
2019-06-10T23:23:46.824Z,12.98
2019-06-10T23:26:18.907Z,12.58
2019-06-10T23:28:48.285Z,14.55
2019-06-10T23:31:17.690Z,13.22
2019-06-10T23:33:47.178Z,13.30
2019-06-10T23:36:16.663Z,14.07
2019-06-10T23:41:16.370Z,14.18
2019-06-10T23:43:47.487Z,14.15
2019-06-10T23:46:17.006Z,14.95
2019-06-10T23:48:47.673Z,14.70
2019-06-10T23:51:17.141Z,16.32
2019-06-10T23:53:49.480Z,14.47
2019-06-10T23:56:18.892Z,14.43
2019-06-10T23:58:49.505Z,15.03
